sensor_id;sensor_type;location;lat;lon;timestamp;pressure;altitude;pressure_sealevel;temperature;humidity
77603;BME280;66771;52.434;17.056;2023-05-07T00:00:59;101304.73;;;6.46;93.18
77603;BME280;66771;52.434;17.056;2023-05-07T00:03:30;101307.41;;;6.46;93.08
77603;BME280;66771;52.434;17.056;2023-05-07T00:05:58;101304.48;;;6.47;93.02
77603;BME280;66771;52.434;17.056;2023-05-07T00:08:30;101298.41;;;6.47;93.11
77603;BME280;66771;52.434;17.056;2023-05-07T00:10:58;101295.61;;;6.46;92.88
77603;BME280;66771;52.434;17.056;2023-05-07T00:13:28;101279.98;;;6.40;93.15
77603;BME280;66771;52.434;17.056;2023-05-07T00:16:09;101303.52;;;6.52;93.09
77603;BME280;66771;52.434;17.056;2023-05-07T00:19:30;101304.42;;;6.52;92.93
77603;BME280;66771;52.434;17.056;2023-05-07T00:22:01;101306.23;;;6.51;93.15
77603;BME280;66771;52.434;17.056;2023-05-07T00:24:34;101304.95;;;6.52;93.36
77603;BME280;66771;52.434;17.056;2023-05-07T00:27:02;101306.38;;;6.52;93.09
77603;BME280;66771;52.434;17.056;2023-05-07T00:29:29;101302.38;;;6.50;93.17
77603;BME280;66771;52.434;17.056;2023-05-07T00:32:09;101304.86;;;6.54;92.98
77603;BME280;66771;52.434;17.056;2023-05-07T00:34:48;101299.77;;;6.55;92.95
77603;BME280;66771;52.434;17.056;2023-05-07T00:37:17;101303.67;;;6.56;92.95
77603;BME280;66771;52.434;17.056;2023-05-07T00:39:46;101306.25;;;6.58;93.15
77603;BME280;66771;52.434;17.056;2023-05-07T00:42:21;101303.55;;;6.58;93.04
77603;BME280;66771;52.434;17.056;2023-05-07T00:45:16;101306.77;;;6.58;93.18
77603;BME280;66771;52.434;17.056;2023-05-07T00:47:49;101315.28;;;6.56;93.23
77603;BME280;66771;52.434;17.056;2023-05-07T00:50:29;101315.77;;;6.57;93.26
77603;BME280;66771;52.434;17.056;2023-05-07T00:53:11;101316.70;;;6.57;93.16
77603;BME280;66771;52.434;17.056;2023-05-07T00:55:42;101312.75;;;6.53;92.69
77603;BME280;66771;52.434;17.056;2023-05-07T00:58:21;101315.67;;;6.52;92.90
77603;BME280;66771;52.434;17.056;2023-05-07T01:01:04;101313.81;;;6.50;92.87
77603;BME280;66771;52.434;17.056;2023-05-07T01:03:43;101320.05;;;6.43;92.82
77603;BME280;66771;52.434;17.056;2023-05-07T01:06:10;101318.90;;;6.41;92.94
77603;BME280;66771;52.434;17.056;2023-05-07T01:08:40;101318.45;;;6.39;92.99
77603;BME280;66771;52.434;17.056;2023-05-07T01:11:08;101315.38;;;6.36;93.05
77603;BME280;66771;52.434;17.056;2023-05-07T01:13:36;101315.73;;;6.36;93.01
77603;BME280;66771;52.434;17.056;2023-05-07T01:16:04;101317.91;;;6.32;92.94
77603;BME280;66771;52.434;17.056;2023-05-07T01:18:32;101320.52;;;6.30;92.90
77603;BME280;66771;52.434;17.056;2023-05-07T01:20:59;101315.73;;;6.25;92.95
77603;BME280;66771;52.434;17.056;2023-05-07T01:23:27;101317.73;;;6.21;92.92
77603;BME280;66771;52.434;17.056;2023-05-07T01:25:54;101322.10;;;6.16;93.06
77603;BME280;66771;52.434;17.056;2023-05-07T01:28:23;101325.88;;;6.11;92.99
77603;BME280;66771;52.434;17.056;2023-05-07T01:30:53;101323.22;;;6.04;92.91
77603;BME280;66771;52.434;17.056;2023-05-07T01:33:23;101323.17;;;5.97;92.80
77603;BME280;66771;52.434;17.056;2023-05-07T01:35:53;101325.95;;;5.91;92.92
77603;BME280;66771;52.434;17.056;2023-05-07T01:38:21;101324.64;;;5.84;92.62
77603;BME280;66771;52.434;17.056;2023-05-07T01:40:49;101322.92;;;5.78;92.80
77603;BME280;66771;52.434;17.056;2023-05-07T01:43:15;101329.23;;;5.74;92.90
77603;BME280;66771;52.434;17.056;2023-05-07T01:45:43;101328.15;;;5.70;93.22
77603;BME280;66771;52.434;17.056;2023-05-07T01:48:11;101322.50;;;5.65;93.11
77603;BME280;66771;52.434;17.056;2023-05-07T01:50:39;101325.73;;;5.68;93.03
77603;BME280;66771;52.434;17.056;2023-05-07T01:53:06;101330.09;;;5.71;93.22
77603;BME280;66771;52.434;17.056;2023-05-07T01:55:33;101330.55;;;5.72;93.36
77603;BME280;66771;52.434;17.056;2023-05-07T01:57:59;101331.11;;;5.76;93.52
77603;BME280;66771;52.434;17.056;2023-05-07T02:00:26;101331.92;;;5.77;93.41
77603;BME280;66771;52.434;17.056;2023-05-07T02:02:53;101333.58;;;5.80;93.63
77603;BME280;66771;52.434;17.056;2023-05-07T02:05:25;101332.52;;;5.80;93.43
77603;BME280;66771;52.434;17.056;2023-05-07T02:07:58;101333.73;;;5.80;93.44
77603;BME280;66771;52.434;17.056;2023-05-07T02:10:27;101328.08;;;5.83;93.39
77603;BME280;66771;52.434;17.056;2023-05-07T02:12:53;101329.53;;;5.86;93.42
77603;BME280;66771;52.434;17.056;2023-05-07T02:15:20;101328.66;;;5.90;93.41
77603;BME280;66771;52.434;17.056;2023-05-07T02:20:26;101333.45;;;5.95;93.16
77603;BME280;66771;52.434;17.056;2023-05-07T02:22:53;101337.52;;;5.95;93.38
77603;BME280;66771;52.434;17.056;2023-05-07T02:25:19;101332.55;;;5.87;93.30
77603;BME280;66771;52.434;17.056;2023-05-07T02:27:46;101340.05;;;5.90;93.38
77603;BME280;66771;52.434;17.056;2023-05-07T02:30:14;101340.44;;;5.90;93.24
77603;BME280;66771;52.434;17.056;2023-05-07T02:32:41;101340.23;;;5.87;93.18
77603;BME280;66771;52.434;17.056;2023-05-07T02:35:07;101346.63;;;5.83;93.09
77603;BME280;66771;52.434;17.056;2023-05-07T02:37:34;101341.58;;;5.81;93.28
77603;BME280;66771;52.434;17.056;2023-05-07T02:40:01;101342.90;;;5.79;93.33
77603;BME280;66771;52.434;17.056;2023-05-07T02:42:30;101342.39;;;5.79;93.33
77603;BME280;66771;52.434;17.056;2023-05-07T02:44:56;101344.34;;;5.79;93.19
77603;BME280;66771;52.434;17.056;2023-05-07T02:47:23;101347.70;;;5.80;93.19
77603;BME280;66771;52.434;17.056;2023-05-07T02:49:50;101346.73;;;5.82;93.38
77603;BME280;66771;52.434;17.056;2023-05-07T02:52:16;101346.92;;;5.84;93.40
77603;BME280;66771;52.434;17.056;2023-05-07T02:54:43;101342.26;;;5.89;93.49
77603;BME280;66771;52.434;17.056;2023-05-07T02:57:10;101334.34;;;5.90;93.32
77603;BME280;66771;52.434;17.056;2023-05-07T02:59:36;101329.92;;;5.89;93.17
77603;BME280;66771;52.434;17.056;2023-05-07T03:02:03;101334.92;;;5.89;93.51
77603;BME280;66771;52.434;17.056;2023-05-07T03:04:30;101338.73;;;5.92;93.45
77603;BME280;66771;52.434;17.056;2023-05-07T03:06:56;101341.63;;;5.96;93.38
77603;BME280;66771;52.434;17.056;2023-05-07T03:09:23;101344.36;;;5.99;93.15
77603;BME280;66771;52.434;17.056;2023-05-07T03:11:50;101350.85;;;6.01;93.00
77603;BME280;66771;52.434;17.056;2023-05-07T03:14:16;101350.08;;;6.02;92.93
77603;BME280;66771;52.434;17.056;2023-05-07T03:16:43;101354.69;;;6.03;93.14
77603;BME280;66771;52.434;17.056;2023-05-07T03:19:10;101357.17;;;6.03;93.03
77603;BME280;66771;52.434;17.056;2023-05-07T03:21:36;101365.89;;;6.04;93.02
77603;BME280;66771;52.434;17.056;2023-05-07T03:24:03;101367.83;;;6.05;92.76
77603;BME280;66771;52.434;17.056;2023-05-07T03:26:30;101374.37;;;6.06;92.73
77603;BME280;66771;52.434;17.056;2023-05-07T03:28:56;101374.19;;;6.06;92.61
77603;BME280;66771;52.434;17.056;2023-05-07T03:31:23;101374.70;;;6.06;92.55
77603;BME280;66771;52.434;17.056;2023-05-07T03:33:54;101374.63;;;6.04;92.47
77603;BME280;66771;52.434;17.056;2023-05-07T03:36:22;101374.48;;;6.08;92.43
77603;BME280;66771;52.434;17.056;2023-05-07T03:38:50;101379.46;;;6.12;92.43
77603;BME280;66771;52.434;17.056;2023-05-07T03:41:19;101381.71;;;6.17;92.38
77603;BME280;66771;52.434;17.056;2023-05-07T03:43:47;101387.29;;;6.21;92.03
77603;BME280;66771;52.434;17.056;2023-05-07T03:46:14;101388.66;;;6.21;91.71
77603;BME280;66771;52.434;17.056;2023-05-07T03:48:41;101389.05;;;6.21;91.91
77603;BME280;66771;52.434;17.056;2023-05-07T03:51:07;101384.77;;;6.24;91.73
77603;BME280;66771;52.434;17.056;2023-05-07T03:53:34;101387.83;;;6.28;91.55
77603;BME280;66771;52.434;17.056;2023-05-07T03:56:01;101388.23;;;6.30;91.32
77603;BME280;66771;52.434;17.056;2023-05-07T03:58:28;101383.29;;;6.33;91.39
77603;BME280;66771;52.434;17.056;2023-05-07T04:00:56;101386.98;;;6.38;90.99
77603;BME280;66771;52.434;17.056;2023-05-07T04:03:25;101385.40;;;6.41;91.10
77603;BME280;66771;52.434;17.056;2023-05-07T04:05:52;101384.38;;;6.43;91.21
77603;BME280;66771;52.434;17.056;2023-05-07T04:08:19;101390.71;;;6.49;91.45
77603;BME280;66771;52.434;17.056;2023-05-07T04:10:48;101393.11;;;6.55;90.17
77603;BME280;66771;52.434;17.056;2023-05-07T04:13:14;101402.70;;;6.60;90.64
77603;BME280;66771;52.434;17.056;2023-05-07T04:15:41;101401.41;;;6.57;90.35
77603;BME280;66771;52.434;17.056;2023-05-07T04:18:09;101414.09;;;6.58;90.37
77603;BME280;66771;52.434;17.056;2023-05-07T04:20:36;101417.70;;;6.53;90.11
77603;BME280;66771;52.434;17.056;2023-05-07T04:23:04;101419.02;;;6.44;88.81
77603;BME280;66771;52.434;17.056;2023-05-07T04:25:31;101421.06;;;6.39;89.89
77603;BME280;66771;52.434;17.056;2023-05-07T04:28:03;101420.70;;;6.43;89.53
77603;BME280;66771;52.434;17.056;2023-05-07T04:30:30;101425.52;;;6.54;89.70
77603;BME280;66771;52.434;17.056;2023-05-07T04:32:57;101422.17;;;6.65;89.93
77603;BME280;66771;52.434;17.056;2023-05-07T04:35:23;101420.96;;;6.75;89.58
77603;BME280;66771;52.434;17.056;2023-05-07T04:37:50;101422.17;;;6.93;90.04
77603;BME280;66771;52.434;17.056;2023-05-07T04:40:17;101430.42;;;7.29;89.83
77603;BME280;66771;52.434;17.056;2023-05-07T04:42:44;101434.07;;;7.62;89.77
77603;BME280;66771;52.434;17.056;2023-05-07T04:45:12;101436.94;;;8.09;89.92
77603;BME280;66771;52.434;17.056;2023-05-07T04:47:39;101437.91;;;8.24;89.12
77603;BME280;66771;52.434;17.056;2023-05-07T04:50:06;101431.90;;;8.12;88.63
77603;BME280;66771;52.434;17.056;2023-05-07T04:52:34;101439.31;;;7.98;88.46
77603;BME280;66771;52.434;17.056;2023-05-07T04:55:01;101442.75;;;7.91;87.85
77603;BME280;66771;52.434;17.056;2023-05-07T04:57:30;101443.39;;;7.86;87.46
77603;BME280;66771;52.434;17.056;2023-05-07T04:59:57;101445.26;;;7.84;86.93
77603;BME280;66771;52.434;17.056;2023-05-07T05:02:23;101447.89;;;7.78;87.08
77603;BME280;66771;52.434;17.056;2023-05-07T05:04:50;101447.36;;;7.75;87.87
77603;BME280;66771;52.434;17.056;2023-05-07T05:07:17;101450.27;;;7.77;87.55
77603;BME280;66771;52.434;17.056;2023-05-07T05:09:44;101452.31;;;7.90;87.74
77603;BME280;66771;52.434;17.056;2023-05-07T05:12:11;101458.34;;;8.11;87.13
77603;BME280;66771;52.434;17.056;2023-05-07T05:14:38;101454.58;;;8.28;86.13
77603;BME280;66771;52.434;17.056;2023-05-07T05:17:05;101451.61;;;8.39;85.78
77603;BME280;66771;52.434;17.056;2023-05-07T05:19:32;101451.55;;;8.41;84.99
77603;BME280;66771;52.434;17.056;2023-05-07T05:21:59;101454.07;;;8.47;85.54
77603;BME280;66771;52.434;17.056;2023-05-07T05:24:28;101450.80;;;8.54;83.71
77603;BME280;66771;52.434;17.056;2023-05-07T05:26:55;101454.16;;;8.58;85.28
77603;BME280;66771;52.434;17.056;2023-05-07T05:29:21;101441.82;;;8.61;85.56
77603;BME280;66771;52.434;17.056;2023-05-07T05:31:48;101461.48;;;8.81;85.36
77603;BME280;66771;52.434;17.056;2023-05-07T05:34:15;101466.16;;;8.87;85.67
77603;BME280;66771;52.434;17.056;2023-05-07T05:36:44;101471.15;;;8.94;84.50
77603;BME280;66771;52.434;17.056;2023-05-07T05:39:11;101474.15;;;9.01;84.65
77603;BME280;66771;52.434;17.056;2023-05-07T05:41:38;101478.01;;;9.03;83.32
77603;BME280;66771;52.434;17.056;2023-05-07T05:44:04;101479.84;;;8.96;83.70
77603;BME280;66771;52.434;17.056;2023-05-07T05:46:31;101485.39;;;8.96;83.57
77603;BME280;66771;52.434;17.056;2023-05-07T05:48:58;101488.77;;;9.03;83.91
77603;BME280;66771;52.434;17.056;2023-05-07T05:51:24;101487.80;;;9.10;83.32
77603;BME280;66771;52.434;17.056;2023-05-07T05:53:51;101489.80;;;9.13;82.00
77603;BME280;66771;52.434;17.056;2023-05-07T05:56:18;101489.98;;;9.13;81.32
77603;BME280;66771;52.434;17.056;2023-05-07T05:58:46;101486.98;;;9.18;81.50
77603;BME280;66771;52.434;17.056;2023-05-07T06:01:12;101492.95;;;9.18;81.56
77603;BME280;66771;52.434;17.056;2023-05-07T06:03:39;101484.87;;;9.27;80.34
77603;BME280;66771;52.434;17.056;2023-05-07T06:06:12;101486.48;;;9.39;79.54
77603;BME280;66771;52.434;17.056;2023-05-07T06:08:42;101484.47;;;9.55;81.15
77603;BME280;66771;52.434;17.056;2023-05-07T06:11:09;101488.70;;;9.63;79.58
77603;BME280;66771;52.434;17.056;2023-05-07T06:13:37;101490.58;;;9.49;78.49
77603;BME280;66771;52.434;17.056;2023-05-07T06:16:05;101494.98;;;9.38;77.78
77603;BME280;66771;52.434;17.056;2023-05-07T06:18:32;101493.73;;;9.41;77.99
77603;BME280;66771;52.434;17.056;2023-05-07T06:20:59;101499.56;;;9.49;78.59
77603;BME280;66771;52.434;17.056;2023-05-07T06:23:28;101501.66;;;9.53;77.83
77603;BME280;66771;52.434;17.056;2023-05-07T06:25:55;101502.22;;;9.59;78.70
77603;BME280;66771;52.434;17.056;2023-05-07T06:28:25;101505.61;;;9.71;77.69
77603;BME280;66771;52.434;17.056;2023-05-07T06:30:51;101505.00;;;9.72;75.53
77603;BME280;66771;52.434;17.056;2023-05-07T06:33:18;101502.80;;;9.64;75.06
77603;BME280;66771;52.434;17.056;2023-05-07T06:35:46;101503.77;;;9.59;74.76
77603;BME280;66771;52.434;17.056;2023-05-07T06:38:13;101497.43;;;9.70;76.33
77603;BME280;66771;52.434;17.056;2023-05-07T06:40:40;101497.13;;;9.86;76.39
77603;BME280;66771;52.434;17.056;2023-05-07T06:43:07;101496.59;;;10.01;76.66
77603;BME280;66771;52.434;17.056;2023-05-07T06:45:46;101494.30;;;10.09;73.71
77603;BME280;66771;52.434;17.056;2023-05-07T06:48:13;101492.14;;;10.06;74.53
77603;BME280;66771;52.434;17.056;2023-05-07T06:50:49;101489.50;;;10.11;73.78
77603;BME280;66771;52.434;17.056;2023-05-07T06:53:16;101495.08;;;10.26;75.05
77603;BME280;66771;52.434;17.056;2023-05-07T06:55:43;101496.65;;;10.44;74.70
77603;BME280;66771;52.434;17.056;2023-05-07T06:58:10;101497.86;;;10.56;74.92
77603;BME280;66771;52.434;17.056;2023-05-07T07:00:37;101502.86;;;10.68;73.80
77603;BME280;66771;52.434;17.056;2023-05-07T07:03:04;101501.64;;;10.81;71.37
77603;BME280;66771;52.434;17.056;2023-05-07T07:05:31;101502.36;;;10.90;72.48
77603;BME280;66771;52.434;17.056;2023-05-07T07:07:58;101501.81;;;11.06;71.89
77603;BME280;66771;52.434;17.056;2023-05-07T07:10:24;101508.77;;;11.29;72.66
77603;BME280;66771;52.434;17.056;2023-05-07T07:12:51;101505.59;;;11.42;72.35
77603;BME280;66771;52.434;17.056;2023-05-07T07:15:20;101508.96;;;11.40;70.98
77603;BME280;66771;52.434;17.056;2023-05-07T07:17:48;101507.95;;;11.44;70.41
77603;BME280;66771;52.434;17.056;2023-05-07T07:20:14;101516.27;;;11.36;69.78
77603;BME280;66771;52.434;17.056;2023-05-07T07:22:42;101515.30;;;11.39;70.88
77603;BME280;66771;52.434;17.056;2023-05-07T07:25:09;101518.16;;;11.50;70.30
77603;BME280;66771;52.434;17.056;2023-05-07T07:27:37;101523.58;;;11.66;69.22
77603;BME280;66771;52.434;17.056;2023-05-07T07:30:05;101521.13;;;11.70;69.10
77603;BME280;66771;52.434;17.056;2023-05-07T07:32:34;101518.25;;;11.73;69.57
77603;BME280;66771;52.434;17.056;2023-05-07T07:35:01;101518.50;;;11.80;68.57
77603;BME280;66771;52.434;17.056;2023-05-07T07:37:28;101526.81;;;11.91;69.10
77603;BME280;66771;52.434;17.056;2023-05-07T07:39:56;101525.00;;;11.99;67.20
77603;BME280;66771;52.434;17.056;2023-05-07T07:42:23;101532.84;;;11.90;66.93
77603;BME280;66771;52.434;17.056;2023-05-07T07:44:50;101536.60;;;11.93;67.94
77603;BME280;66771;52.434;17.056;2023-05-07T07:47:18;101533.88;;;12.01;66.56
77603;BME280;66771;52.434;17.056;2023-05-07T07:49:46;101537.23;;;11.99;67.41
77603;BME280;66771;52.434;17.056;2023-05-07T07:52:13;101539.40;;;12.04;68.35
77603;BME280;66771;52.434;17.056;2023-05-07T07:54:40;101539.05;;;12.09;66.21
77603;BME280;66771;52.434;17.056;2023-05-07T07:57:07;101542.38;;;12.11;65.18
77603;BME280;66771;52.434;17.056;2023-05-07T07:59:34;101541.07;;;12.11;64.86
77603;BME280;66771;52.434;17.056;2023-05-07T08:02:01;101544.94;;;12.20;64.35
77603;BME280;66771;52.434;17.056;2023-05-07T08:04:28;101544.16;;;12.06;64.35
77603;BME280;66771;52.434;17.056;2023-05-07T08:06:56;101546.18;;;12.11;66.01
77603;BME280;66771;52.434;17.056;2023-05-07T08:09:24;101545.08;;;12.21;62.83
77603;BME280;66771;52.434;17.056;2023-05-07T08:11:51;101546.63;;;12.20;63.67
77603;BME280;66771;52.434;17.056;2023-05-07T08:14:18;101550.61;;;12.19;64.10
77603;BME280;66771;52.434;17.056;2023-05-07T08:16:46;101550.39;;;12.30;64.86
77603;BME280;66771;52.434;17.056;2023-05-07T08:19:13;101556.20;;;12.40;62.65
77603;BME280;66771;52.434;17.056;2023-05-07T08:21:40;101556.05;;;12.45;64.52
77603;BME280;66771;52.434;17.056;2023-05-07T08:24:08;101563.27;;;12.60;62.36
77603;BME280;66771;52.434;17.056;2023-05-07T08:26:35;101566.10;;;12.73;64.34
77603;BME280;66771;52.434;17.056;2023-05-07T08:29:03;101568.82;;;12.78;63.70
77603;BME280;66771;52.434;17.056;2023-05-07T08:31:29;101571.77;;;12.68;63.03
77603;BME280;66771;52.434;17.056;2023-05-07T08:33:57;101573.80;;;12.69;64.01
77603;BME280;66771;52.434;17.056;2023-05-07T08:36:25;101572.38;;;12.66;63.21
77603;BME280;66771;52.434;17.056;2023-05-07T08:38:52;101571.64;;;12.57;63.04
77603;BME280;66771;52.434;17.056;2023-05-07T08:41:19;101570.27;;;12.56;64.08
77603;BME280;66771;52.434;17.056;2023-05-07T08:43:48;101570.39;;;12.77;62.21
77603;BME280;66771;52.434;17.056;2023-05-07T08:46:25;101570.77;;;12.74;60.42
77603;BME280;66771;52.434;17.056;2023-05-07T08:48:54;101572.77;;;12.76;61.29
77603;BME280;66771;52.434;17.056;2023-05-07T08:51:21;101573.86;;;12.94;61.79
77603;BME280;66771;52.434;17.056;2023-05-07T08:53:49;101578.84;;;13.05;59.63
77603;BME280;66771;52.434;17.056;2023-05-07T08:56:21;101583.15;;;13.02;59.42
77603;BME280;66771;52.434;17.056;2023-05-07T08:58:48;101583.27;;;13.18;58.16
77603;BME280;66771;52.434;17.056;2023-05-07T09:01:16;101581.84;;;13.36;57.57
77603;BME280;66771;52.434;17.056;2023-05-07T09:03:46;101583.61;;;13.29;57.11
77603;BME280;66771;52.434;17.056;2023-05-07T09:06:15;101569.98;;;12.82;56.32
77603;BME280;66771;52.434;17.056;2023-05-07T09:08:49;101594.80;;;12.81;58.50
77603;BME280;66771;52.434;17.056;2023-05-07T09:11:22;101604.66;;;12.92;57.61
77603;BME280;66771;52.434;17.056;2023-05-07T09:13:53;101608.08;;;12.95;56.81
77603;BME280;66771;52.434;17.056;2023-05-07T09:16:21;101607.02;;;12.92;57.77
77603;BME280;66771;52.434;17.056;2023-05-07T09:18:51;101607.52;;;13.03;58.45
77603;BME280;66771;52.434;17.056;2023-05-07T09:21:19;101605.02;;;13.12;57.64
77603;BME280;66771;52.434;17.056;2023-05-07T09:23:51;101606.37;;;13.18;56.74
77603;BME280;66771;52.434;17.056;2023-05-07T09:26:23;101602.81;;;13.08;56.54
77603;BME280;66771;52.434;17.056;2023-05-07T09:28:51;101603.38;;;13.08;57.36
77603;BME280;66771;52.434;17.056;2023-05-07T09:31:19;101591.87;;;13.14;57.60
77603;BME280;66771;52.434;17.056;2023-05-07T09:33:46;101603.30;;;13.21;56.74
77603;BME280;66771;52.434;17.056;2023-05-07T09:36:13;101603.36;;;13.15;57.35
77603;BME280;66771;52.434;17.056;2023-05-07T09:38:41;101608.05;;;13.13;57.17
77603;BME280;66771;52.434;17.056;2023-05-07T09:41:09;101608.50;;;13.06;57.58
77603;BME280;66771;52.434;17.056;2023-05-07T09:43:57;101611.01;;;12.92;57.22
77603;BME280;66771;52.434;17.056;2023-05-07T09:46:30;101614.38;;;12.85;57.56
77603;BME280;66771;52.434;17.056;2023-05-07T09:49:06;101612.61;;;12.85;57.87
77603;BME280;66771;52.434;17.056;2023-05-07T09:51:43;101614.77;;;13.00;58.49
77603;BME280;66771;52.434;17.056;2023-05-07T09:54:12;101612.02;;;13.05;58.01
77603;BME280;66771;52.434;17.056;2023-05-07T09:56:40;101619.27;;;13.08;58.44
77603;BME280;66771;52.434;17.056;2023-05-07T09:59:10;101604.64;;;13.03;58.81
77603;BME280;66771;52.434;17.056;2023-05-07T10:01:44;101612.92;;;13.15;59.19
77603;BME280;66771;52.434;17.056;2023-05-07T10:04:12;101623.55;;;13.29;58.22
77603;BME280;66771;52.434;17.056;2023-05-07T10:06:40;101626.38;;;13.25;58.00
77603;BME280;66771;52.434;17.056;2023-05-07T10:09:07;101627.52;;;13.18;57.94
77603;BME280;66771;52.434;17.056;2023-05-07T10:11:36;101616.46;;;12.99;58.15
77603;BME280;66771;52.434;17.056;2023-05-07T10:14:04;101622.23;;;13.02;58.83
77603;BME280;66771;52.434;17.056;2023-05-07T10:16:36;101624.47;;;12.96;58.58
77603;BME280;66771;52.434;17.056;2023-05-07T10:19:06;101621.52;;;12.84;57.29
77603;BME280;66771;52.434;17.056;2023-05-07T10:21:36;101621.88;;;12.79;58.51
77603;BME280;66771;52.434;17.056;2023-05-07T10:24:14;101620.29;;;12.96;57.16
77603;BME280;66771;52.434;17.056;2023-05-07T10:26:47;101619.79;;;13.18;56.88
77603;BME280;66771;52.434;17.056;2023-05-07T10:29:32;101619.88;;;13.39;56.23
77603;BME280;66771;52.434;17.056;2023-05-07T10:32:20;101621.32;;;13.61;57.40
77603;BME280;66771;52.434;17.056;2023-05-07T10:34:54;101626.09;;;13.80;57.19
77603;BME280;66771;52.434;17.056;2023-05-07T10:37:23;101617.70;;;13.62;55.20
77603;BME280;66771;52.434;17.056;2023-05-07T10:39:51;101628.40;;;13.49;54.85
77603;BME280;66771;52.434;17.056;2023-05-07T10:42:18;101626.96;;;13.68;56.43
77603;BME280;66771;52.434;17.056;2023-05-07T10:44:49;101626.10;;;14.04;56.60
77603;BME280;66771;52.434;17.056;2023-05-07T10:47:21;101624.52;;;14.15;54.26
77603;BME280;66771;52.434;17.056;2023-05-07T10:52:24;101621.77;;;14.15;53.06
77603;BME280;66771;52.434;17.056;2023-05-07T10:55:20;101629.17;;;13.94;54.64
77603;BME280;66771;52.434;17.056;2023-05-07T10:58:25;101629.81;;;13.88;55.62
77603;BME280;66771;52.434;17.056;2023-05-07T11:01:01;101635.64;;;13.78;55.70
77603;BME280;66771;52.434;17.056;2023-05-07T11:03:33;101634.65;;;13.82;57.02
77603;BME280;66771;52.434;17.056;2023-05-07T11:06:13;101632.21;;;13.92;55.75
77603;BME280;66771;52.434;17.056;2023-05-07T11:09:02;101632.34;;;14.00;55.59
77603;BME280;66771;52.434;17.056;2023-05-07T11:11:49;101634.95;;;14.04;52.64
77603;BME280;66771;52.434;17.056;2023-05-07T11:17:12;101641.05;;;13.86;51.47
77603;BME280;66771;52.434;17.056;2023-05-07T11:19:51;101637.48;;;13.78;52.30
77603;BME280;66771;52.434;17.056;2023-05-07T11:25:08;101648.86;;;14.02;51.87
77603;BME280;66771;52.434;17.056;2023-05-07T11:27:35;101643.13;;;13.94;51.48
77603;BME280;66771;52.434;17.056;2023-05-07T11:30:02;101644.17;;;13.89;51.69
77603;BME280;66771;52.434;17.056;2023-05-07T11:32:31;101645.42;;;13.90;51.56
77603;BME280;66771;52.434;17.056;2023-05-07T11:35:00;101647.39;;;13.80;52.25
77603;BME280;66771;52.434;17.056;2023-05-07T11:37:27;101649.28;;;13.72;51.47
77603;BME280;66771;52.434;17.056;2023-05-07T11:40:08;101651.53;;;13.59;52.08
77603;BME280;66771;52.434;17.056;2023-05-07T11:42:38;101652.46;;;13.49;51.45
77603;BME280;66771;52.434;17.056;2023-05-07T11:45:06;101651.27;;;13.57;53.25
77603;BME280;66771;52.434;17.056;2023-05-07T11:47:34;101647.42;;;14.09;52.85
77603;BME280;66771;52.434;17.056;2023-05-07T11:50:06;101651.17;;;14.33;52.91
77603;BME280;66771;52.434;17.056;2023-05-07T11:52:34;101655.23;;;14.32;51.17
77603;BME280;66771;52.434;17.056;2023-05-07T11:55:02;101660.70;;;14.17;50.59
77603;BME280;66771;52.434;17.056;2023-05-07T11:57:30;101658.40;;;14.09;51.63
77603;BME280;66771;52.434;17.056;2023-05-07T11:59:59;101657.09;;;14.10;51.08
77603;BME280;66771;52.434;17.056;2023-05-07T12:02:27;101653.06;;;14.08;51.84
77603;BME280;66771;52.434;17.056;2023-05-07T12:04:54;101653.24;;;14.58;53.39
77603;BME280;66771;52.434;17.056;2023-05-07T12:07:21;101650.23;;;15.05;51.07
77603;BME280;66771;52.434;17.056;2023-05-07T12:09:50;101654.26;;;15.00;49.61
77603;BME280;66771;52.434;17.056;2023-05-07T12:12:17;101654.13;;;14.70;48.71
77603;BME280;66771;52.434;17.056;2023-05-07T12:14:45;101654.59;;;14.38;49.67
77603;BME280;66771;52.434;17.056;2023-05-07T12:17:13;101656.51;;;14.13;50.37
77603;BME280;66771;52.434;17.056;2023-05-07T12:19:42;101655.26;;;13.84;50.71
77603;BME280;66771;52.434;17.056;2023-05-07T12:22:10;101657.98;;;13.67;51.74
77603;BME280;66771;52.434;17.056;2023-05-07T12:24:48;101652.28;;;13.85;51.92
77603;BME280;66771;52.434;17.056;2023-05-07T12:27:16;101650.69;;;14.54;51.84
77603;BME280;66771;52.434;17.056;2023-05-07T12:29:47;101646.47;;;15.11;50.35
77603;BME280;66771;52.434;17.056;2023-05-07T12:32:16;101633.04;;;15.34;49.91
77603;BME280;66771;52.434;17.056;2023-05-07T12:34:44;101653.20;;;15.49;48.73
77603;BME280;66771;52.434;17.056;2023-05-07T12:37:12;101655.74;;;15.38;48.43
77603;BME280;66771;52.434;17.056;2023-05-07T12:39:47;101654.07;;;15.43;48.11
77603;BME280;66771;52.434;17.056;2023-05-07T12:42:20;101655.86;;;15.56;48.17
77603;BME280;66771;52.434;17.056;2023-05-07T12:44:52;101653.38;;;15.82;46.13
77603;BME280;66771;52.434;17.056;2023-05-07T12:47:18;101656.11;;;15.78;44.94
77603;BME280;66771;52.434;17.056;2023-05-07T12:49:46;101658.95;;;15.63;46.01
77603;BME280;66771;52.434;17.056;2023-05-07T12:52:13;101654.72;;;15.44;46.01
77603;BME280;66771;52.434;17.056;2023-05-07T12:54:40;101658.89;;;15.28;47.16
77603;BME280;66771;52.434;17.056;2023-05-07T12:57:09;101657.80;;;15.13;47.63
77603;BME280;66771;52.434;17.056;2023-05-07T12:59:38;101654.33;;;15.03;47.23
77603;BME280;66771;52.434;17.056;2023-05-07T13:02:05;101653.73;;;15.02;47.06
77603;BME280;66771;52.434;17.056;2023-05-07T13:04:32;101657.83;;;14.92;47.24
77603;BME280;66771;52.434;17.056;2023-05-07T13:07:00;101656.20;;;14.57;46.74